Airfield :
LOGIN :

Register | Disclaimer

   EN    FR    IT 

 










Legend :    VFR   Marginal VFR   IFR   Intensive IFR   Very Intensive IFR
Visi :
Ceiling :
>= 8 km
>= 3000ft
5 to 8 km
1000 to 3000 ft
1500m to 5 km
500 to 1000 ft
800 to 1500m
200 to 500 ft
< 800m
< 200 ft
Symbols :   Thunderstorms  Fog  Heavy snow  Heavy precipitations  Wind > 20 kt
SIGMETs :     Misc.  Thunderstorms  Icing  Turbulence  Mountain Waves  Volcanic Ashes






- Airport Elevation : 339 ft
- IATA code : UTI


EFUT - Utti Air Base

CURRENT METAR :
  • 182350Z AUTO 16005KT 9999 -SHRA FEW018 SCT038 //////CB 16/16 Q1011

EXPIRED METARs :
  • 182320Z AUTO 17005KT 9999 -SHRA BKN036 //////CB 16/15 Q1011
  • 182250Z AUTO 18005KT 9999 -SHRA NSC 16/15 Q1011 RERA
  • 182220Z AUTO 19006KT 160V220 9999 -SHRA FEW044 //////CB 17/15 Q1012
  • 182150Z AUTO 19005KT CAVOK 17/15 Q1012
  • 182120Z AUTO 19005KT CAVOK 18/15 Q1012
  • 182050Z AUTO 19005KT CAVOK 17/15 Q1012
  • 182020Z AUTO 19004KT CAVOK 18/15 Q1012
  • 181950Z AUTO 19005KT CAVOK 18/15 Q1012
  • 181920Z AUTO 19006KT CAVOK 18/15 Q1012
  • 181850Z AUTO 19007KT CAVOK 18/15 Q1012

Expired Forecast.



MET'MAP, your aeronautical weather chart ! - Copyright ORBIFLY December 2007 - Disclaimer

ORBIFLY MET'MAP TEAM :

Programming & Development : Alexandra Zaïnal
Original concept : Baudouin d'Aumeries
Technical & hardware support : Manuel Goepfert
Assistance : Marc-Olivier Méhu




SOURCES & CREDITS :

   NOAA